RJOA/HIJ METAR and TAF weather

Enter ICAO airport designator
Station Type Date Time Source
RJOA METAR 2021/03/08 03:00 UTC NOAA

RJOA 080300Z VRB03KT 9999 FEW030 12/01 Q1023


Station Type Date Time Source
RJOA Decoded METAR 2021/03/08 03:00 UTC NOAA

Hiroshima Airport, Japan (RJOA) 34-26N 132-55E 334M
Mar 07, 2021 - 10:00 PM EST / 2021.03.08 0300 UTC
Wind: Variable at 3 MPH (3 KT):0
Visibility: greater than 7 mile(s):0
Sky conditions: mostly clear
Temperature: 53 F (12 C)
Dew Point: 33 F (1 C)
Relative Humidity: 46%
Pressure (altimeter): 30.21 in. Hg (1023 hPa)
ob: RJOA 080300Z VRB03KT 9999 FEW030 12/01 Q1023
cycle: 3

Station Type Date Time Source
RJOA TAF 2021/03/07 18:28 UTC NOAA

TAF RJOA 071706Z 0718/0900 02007KT 9999 FEW025

Example: see airport list